CMA CGM Tosca — FMEL — position and weather

sailwx.info

Track history (hours):
 
Tides and Currents Weather Stations Pressure Air Temp Water Temp Dewpoint Dewpoint Depression Visibility Wind Speed Wind Dir Waves Ship Positions

CMA CGM Tosca

Last reported at 2015-Jan-12 04:27 UTC. Time now 2015-Jan-28 20:17 UTC.
Position N 01°51' E 102°27'.
Warning: this ship's position is 16 days out of date.

Length 334 m; draft 12.5 m.

Type: Cargo ship. MMSI: 228335900.

Date/timePositionNaut miles runAvg speedWind from/ knotsBaromVisibWave heightAir tempDewpointWater temp
2015-Jan-12 04:27N 01°51' E 102°27'1819.3
2015-Jan-12 03:31N 01°43' E 102°43'65 2.7
2015-Jan-11 03:08N 01°13' E 103°41'610.9
2015-Jan-11 02:33N 01°16' E 103°46'0 0.3
2015-Jan-11 01:25N 01°16' E 103°46'0 0.0
2015-Jan-10 23:04N 01°16' E 103°46'0 0.0
2015-Jan-10 22:16N 01°16' E 103°46'0 0.0
2015-Jan-10 17:19N 01°16' E 103°46'0 0.0
2015-Jan-10 16:31N 01°16' E 103°46'0 0.0
2015-Jan-10 15:22N 01°16' E 103°46'0 0.0
2015-Jan-10 14:28N 01°16' E 103°46'0 0.0
2015-Jan-10 13:25N 01°16' E 103°46'0 0.0
2015-Jan-10 12:22N 01°16' E 103°46'0 0.0
2015-Jan-10 11:28N 01°16' E 103°46'0 0.0
2015-Jan-10 10:31N 01°16' E 103°46'0 0.0
2015-Jan-10 09:31N 01°16' E 103°46'0 0.0
2015-Jan-10 08:28N 01°16' E 103°46'0 0.0
2015-Jan-10 06:31N 01°16' E 103°46'0 0.0
2015-Jan-10 05:20N 01°16' E 103°46'0 0.0
2015-Jan-10 03:14N 01°16' E 103°46'0 0.0
2015-Jan-10 01:17N 01°16' E 103°46'0 0.5
2015-Jan-10 00:33N 01°16' E 103°46'7 6.3
2015-Jan-09 23:28N 01°13' E 103°52'7 7.7
2015-Jan-09 22:34N 01°15' E 103°59'1413.6
2015-Jan-09 21:32N 01°17' E 104°12'  
2015-Jan-06 20:13N 22°24' E 119°40'1521.9
2015-Jan-06 19:33N 22°36' E 119°49'43121.5
2015-Jan-05 23:33N 29°21' E 122°32'1918.8
2015-Jan-05 22:33N 29°40' E 122°30'1313.0
2015-Jan-05 21:33N 29°46' E 122°17'1312.8
2015-Jan-05 20:33N 29°55' E 122°06'1413.5
2015-Jan-05 19:33N 29°57' E 121°51'1 0.7
2015-Jan-05 18:30N 29°57' E 121°50'0 0.0
2015-Jan-05 17:30N 29°57' E 121°50'0 0.0
2015-Jan-05 16:30N 29°57' E 121°50'0 0.0
2015-Jan-05 15:24N 29°57' E 121°50'0 0.0
2015-Jan-05 12:24N 29°57' E 121°50'0 0.0
2015-Jan-05 11:30N 29°57' E 121°50'0 0.0
2015-Jan-05 10:18N 29°57' E 121°50'0 0.0
2015-Jan-05 09:24N 29°57' E 121°50'0 0.0
2015-Jan-05 08:15N 29°57' E 121°50'0 0.0
2015-Jan-05 07:33N 29°57' E 121°50'0 0.0
2015-Jan-05 06:27N 29°57' E 121°50'0 0.0
2015-Jan-05 05:33N 29°57' E 121°50'0 0.0
2015-Jan-05 04:21N 29°57' E 121°50'0 0.0
2015-Jan-05 03:24N 29°57' E 121°50'0 0.0
2015-Jan-05 02:15N 29°57' E 121°50'0 0.0
2015-Jan-05 01:06N 29°57' E 121°50'0 0.0
2015-Jan-05 00:33N 29°57' E 121°50'0 0.0
2015-Jan-04 23:33N 29°57' E 121°50'0 0.0
2015-Jan-04 22:24N 29°57' E 121°50'0 0.0
2015-Jan-04 21:33N 29°57' E 121°50'0 0.0
2015-Jan-04 20:30N 29°57' E 121°50'0 0.0
2015-Jan-04 19:33N 29°57' E 121°50'0 0.0
2015-Jan-04 18:30N 29°57' E 121°50'0 0.0
2015-Jan-04 17:30N 29°57' E 121°50'0 0.0
2015-Jan-04 16:30N 29°57' E 121°50'0 0.0
2015-Jan-04 15:30N 29°57' E 121°50'0 0.0
2015-Jan-04 13:06N 29°57' E 121°50'0 0.0
2015-Jan-04 12:12N 29°57' E 121°50'0 0.0
2015-Jan-04 11:30N 29°57' E 121°50'0 0.0
2015-Jan-04 10:30N 29°57' E 121°50'0 0.0
2015-Jan-04 09:06N 29°57' E 121°50'0 0.0
2015-Jan-04 08:24N 29°57' E 121°50'0 0.0
2015-Jan-04 05:24N 29°57' E 121°50'3 3.7
2015-Jan-04 04:33N 29°57' E 121°54'1313.1
2015-Jan-04 03:33N 29°56' E 122°09'1312.9
2015-Jan-04 02:33N 29°46' E 122°18'8 8.1
2015-Jan-04 01:33N 29°43' E 122°27'6 5.6
2015-Jan-04 00:32N 29°37' E 122°29'2 1.2
2015-Jan-03 22:27N 29°36' E 122°27'0 0.1
2015-Jan-03 20:33N 29°36' E 122°27'0 0.0
2015-Jan-03 17:15N 29°36' E 122°27'0 0.0
2015-Jan-03 06:15N 29°36' E 122°27'0 0.0
2015-Jan-03 05:21N 29°36' E 122°27'0 0.0
2015-Jan-03 00:27N 29°36' E 122°27'0 0.0
2015-Jan-02 19:15N 29°35' E 122°27'0 0.1
2015-Jan-02 18:33N 29°35' E 122°27'0 0.0
2015-Jan-02 10:21N 29°36' E 122°27'0 0.0
2015-Jan-02 06:27N 29°35' E 122°27'  
Track history (hours):
 
Tides and Currents Weather Stations Pressure Air Temp Water Temp Dewpoint Dewpoint Depression Visibility Wind Speed Wind Dir Waves Ship Positions

CMA CGM Tosca

Last reported at 2015-Jan-12 04:27 UTC. Time now 2015-Jan-28 20:17 UTC.
Position N 01°51' E 102°27'.
Warning: this ship's position is 16 days out of date.

Length 334 m; draft 12.5 m.

Type: Cargo ship. MMSI: 228335900.

Date/timePositionNaut miles runAvg speedWind from/ knotsBaromVisibWave heightAir tempDewpointWater temp
2015-Jan-12 04:27N 01°51' E 102°27'1819.3
2015-Jan-12 03:31N 01°43' E 102°43'65 2.7
2015-Jan-11 03:08N 01°13' E 103°41'610.9
2015-Jan-11 02:33N 01°16' E 103°46'0 0.3
2015-Jan-11 01:25N 01°16' E 103°46'0 0.0
2015-Jan-10 23:04N 01°16' E 103°46'0 0.0
2015-Jan-10 22:16N 01°16' E 103°46'0 0.0
2015-Jan-10 17:19N 01°16' E 103°46'0 0.0
2015-Jan-10 16:31N 01°16' E 103°46'0 0.0
2015-Jan-10 15:22N 01°16' E 103°46'0 0.0
2015-Jan-10 14:28N 01°16' E 103°46'0 0.0
2015-Jan-10 13:25N 01°16' E 103°46'0 0.0
2015-Jan-10 12:22N 01°16' E 103°46'0 0.0
2015-Jan-10 11:28N 01°16' E 103°46'0 0.0
2015-Jan-10 10:31N 01°16' E 103°46'0 0.0
2015-Jan-10 09:31N 01°16' E 103°46'0 0.0
2015-Jan-10 08:28N 01°16' E 103°46'0 0.0
2015-Jan-10 06:31N 01°16' E 103°46'0 0.0
2015-Jan-10 05:20N 01°16' E 103°46'0 0.0
2015-Jan-10 03:14N 01°16' E 103°46'0 0.0
2015-Jan-10 01:17N 01°16' E 103°46'0 0.5
2015-Jan-10 00:33N 01°16' E 103°46'7 6.3
2015-Jan-09 23:28N 01°13' E 103°52'7 7.7
2015-Jan-09 22:34N 01°15' E 103°59'1413.6
2015-Jan-09 21:32N 01°17' E 104°12'  
2015-Jan-06 20:13N 22°24' E 119°40'1521.9
2015-Jan-06 19:33N 22°36' E 119°49'43121.5
2015-Jan-05 23:33N 29°21' E 122°32'1918.8
2015-Jan-05 22:33N 29°40' E 122°30'1313.0
2015-Jan-05 21:33N 29°46' E 122°17'1312.8
2015-Jan-05 20:33N 29°55' E 122°06'1413.5
2015-Jan-05 19:33N 29°57' E 121°51'1 0.7
2015-Jan-05 18:30N 29°57' E 121°50'0 0.0
2015-Jan-05 17:30N 29°57' E 121°50'0 0.0
2015-Jan-05 16:30N 29°57' E 121°50'0 0.0
2015-Jan-05 15:24N 29°57' E 121°50'0 0.0
2015-Jan-05 12:24N 29°57' E 121°50'0 0.0
2015-Jan-05 11:30N 29°57' E 121°50'0 0.0
2015-Jan-05 10:18N 29°57' E 121°50'0 0.0
2015-Jan-05 09:24N 29°57' E 121°50'0 0.0
2015-Jan-05 08:15N 29°57' E 121°50'0 0.0
2015-Jan-05 07:33N 29°57' E 121°50'0 0.0
2015-Jan-05 06:27N 29°57' E 121°50'0 0.0
2015-Jan-05 05:33N 29°57' E 121°50'0 0.0
2015-Jan-05 04:21N 29°57' E 121°50'0 0.0
2015-Jan-05 03:24N 29°57' E 121°50'0 0.0
2015-Jan-05 02:15N 29°57' E 121°50'0 0.0
2015-Jan-05 01:06N 29°57' E 121°50'0 0.0
2015-Jan-05 00:33N 29°57' E 121°50'0 0.0
2015-Jan-04 23:33N 29°57' E 121°50'0 0.0
2015-Jan-04 22:24N 29°57' E 121°50'0 0.0
2015-Jan-04 21:33N 29°57' E 121°50'0 0.0
2015-Jan-04 20:30N 29°57' E 121°50'0 0.0
2015-Jan-04 19:33N 29°57' E 121°50'0 0.0
2015-Jan-04 18:30N 29°57' E 121°50'0 0.0
2015-Jan-04 17:30N 29°57' E 121°50'0 0.0
2015-Jan-04 16:30N 29°57' E 121°50'0 0.0
2015-Jan-04 15:30N 29°57' E 121°50'0 0.0
2015-Jan-04 13:06N 29°57' E 121°50'0 0.0
2015-Jan-04 12:12N 29°57' E 121°50'0 0.0
2015-Jan-04 11:30N 29°57' E 121°50'0 0.0
2015-Jan-04 10:30N 29°57' E 121°50'0 0.0
2015-Jan-04 09:06N 29°57' E 121°50'0 0.0
2015-Jan-04 08:24N 29°57' E 121°50'0 0.0
2015-Jan-04 05:24N 29°57' E 121°50'3 3.7
2015-Jan-04 04:33N 29°57' E 121°54'1313.1
2015-Jan-04 03:33N 29°56' E 122°09'1312.9
2015-Jan-04 02:33N 29°46' E 122°18'8 8.1
2015-Jan-04 01:33N 29°43' E 122°27'6 5.6
2015-Jan-04 00:32N 29°37' E 122°29'2 1.2
2015-Jan-03 22:27N 29°36' E 122°27'0 0.1
2015-Jan-03 20:33N 29°36' E 122°27'0 0.0
2015-Jan-03 17:15N 29°36' E 122°27'0 0.0
2015-Jan-03 06:15N 29°36' E 122°27'0 0.0
2015-Jan-03 05:21N 29°36' E 122°27'0 0.0
2015-Jan-03 00:27N 29°36' E 122°27'0 0.0
2015-Jan-02 19:15N 29°35' E 122°27'0 0.1
2015-Jan-02 18:33N 29°35' E 122°27'0 0.0
2015-Jan-02 10:21N 29°36' E 122°27'0 0.0
2015-Jan-02 06:27N 29°35' E 122°27'  

Dump ship's entire track history